sensor_id;sensor_type;location;lat;lon;timestamp;noise_LAeq;noise_LA_min;noise_LA_max;noise_LA01;noise_LA95
69619;Laerm;57653;51.434;5.984;2023-09-07T00:00:06;33.30;31.12;43.66;;
69619;Laerm;57653;51.434;5.984;2023-09-07T00:00:20;33.03;31.32;42.53;;
69619;Laerm;57653;51.434;5.984;2023-09-07T00:00:31;32.37;31.06;33.32;;
69619;Laerm;57653;51.434;5.984;2023-09-07T00:00:41;32.35;31.24;33.24;;
69619;Laerm;57653;51.434;5.984;2023-09-07T00:00:51;32.52;31.12;36.36;;
69619;Laerm;57653;51.434;5.984;2023-09-07T00:01:05;32.48;30.83;36.16;;
69619;Laerm;57653;51.434;5.984;2023-09-07T00:01:16;33.12;31.17;38.70;;
69619;Laerm;57653;51.434;5.984;2023-09-07T00:01:26;32.77;30.95;37.33;;
69619;Laerm;57653;51.434;5.984;2023-09-07T00:01:36;32.65;31.11;36.08;;
69619;Laerm;57653;51.434;5.984;2023-09-07T00:01:46;32.30;31.10;33.45;;
69619;Laerm;57653;51.434;5.984;2023-09-07T00:01:57;33.30;31.46;40.32;;
69619;Laerm;57653;51.434;5.984;2023-09-07T00:02:07;32.90;31.63;34.58;;
69619;Laerm;57653;51.434;5.984;2023-09-07T00:02:17;33.78;32.15;35.06;;
69619;Laerm;57653;51.434;5.984;2023-09-07T00:02:28;34.23;32.62;36.39;;
69619;Laerm;57653;51.434;5.984;2023-09-07T00:02:38;38.54;34.32;44.62;;
69619;Laerm;57653;51.434;5.984;2023-09-07T00:02:48;53.49;42.39;60.86;;
69619;Laerm;57653;51.434;5.984;2023-09-07T00:02:59;67.36;60.47;71.01;;
69619;Laerm;57653;51.434;5.984;2023-09-07T00:03:11;68.11;66.08;69.78;;
69619;Laerm;57653;51.434;5.984;2023-09-07T00:03:21;63.37;49.21;68.11;;
69619;Laerm;57653;51.434;5.984;2023-09-07T00:03:33;43.38;33.08;51.50;;
69619;Laerm;57653;51.434;5.984;2023-09-07T00:03:43;33.57;31.84;36.06;;
69619;Laerm;57653;51.434;5.984;2023-09-07T00:03:54;32.54;30.94;34.19;;
69619;Laerm;57653;51.434;5.984;2023-09-07T00:04:04;32.22;30.85;33.30;;
69619;Laerm;57653;51.434;5.984;2023-09-07T00:04:16;32.32;31.00;37.34;;
69619;Laerm;57653;51.434;5.984;2023-09-07T00:04:26;32.16;30.78;33.15;;
69619;Laerm;57653;51.434;5.984;2023-09-07T00:04:36;32.16;30.86;33.52;;
69619;Laerm;57653;51.434;5.984;2023-09-07T00:04:47;32.16;31.17;33.07;;
69619;Laerm;57653;51.434;5.984;2023-09-07T00:04:57;32.14;30.92;32.98;;
69619;Laerm;57653;51.434;5.984;2023-09-07T00:05:08;32.12;30.90;33.13;;
69619;Laerm;57653;51.434;5.984;2023-09-07T00:05:18;32.10;30.91;32.96;;
69619;Laerm;57653;51.434;5.984;2023-09-07T00:05:28;32.09;31.06;33.04;;
69619;Laerm;57653;51.434;5.984;2023-09-07T00:05:39;32.10;31.09;32.94;;
69619;Laerm;57653;51.434;5.984;2023-09-07T00:05:49;32.06;31.17;33.12;;
69619;Laerm;57653;51.434;5.984;2023-09-07T00:05:59;32.23;30.99;33.30;;
69619;Laerm;57653;51.434;5.984;2023-09-07T00:06:09;32.61;31.51;33.85;;
69619;Laerm;57653;51.434;5.984;2023-09-07T00:06:20;32.79;31.52;34.37;;
69619;Laerm;57653;51.434;5.984;2023-09-07T00:06:30;32.66;31.39;33.81;;
69619;Laerm;57653;51.434;5.984;2023-09-07T00:06:41;32.69;31.40;33.79;;
69619;Laerm;57653;51.434;5.984;2023-09-07T00:06:54;32.86;31.32;38.95;;
69619;Laerm;57653;51.434;5.984;2023-09-07T00:07:04;32.36;31.23;33.62;;
69619;Laerm;57653;51.434;5.984;2023-09-07T00:07:15;32.32;31.19;33.25;;
69619;Laerm;57653;51.434;5.984;2023-09-07T00:07:25;32.25;31.17;33.52;;
69619;Laerm;57653;51.434;5.984;2023-09-07T00:07:35;32.24;31.03;33.27;;
69619;Laerm;57653;51.434;5.984;2023-09-07T00:07:46;32.12;31.02;33.11;;
69619;Laerm;57653;51.434;5.984;2023-09-07T00:07:56;32.06;30.52;32.96;;
69619;Laerm;57653;51.434;5.984;2023-09-07T00:08:06;32.06;31.10;32.98;;
69619;Laerm;57653;51.434;5.984;2023-09-07T00:08:17;32.05;30.94;33.19;;
69619;Laerm;57653;51.434;5.984;2023-09-07T00:08:27;32.07;31.07;33.02;;
69619;Laerm;57653;51.434;5.984;2023-09-07T00:08:37;32.08;30.75;33.08;;
69619;Laerm;57653;51.434;5.984;2023-09-07T00:08:48;32.06;31.09;33.10;;
69619;Laerm;57653;51.434;5.984;2023-09-07T00:08:58;32.07;30.99;33.24;;
69619;Laerm;57653;51.434;5.984;2023-09-07T00:09:08;32.08;31.11;33.13;;
69619;Laerm;57653;51.434;5.984;2023-09-07T00:09:18;32.08;30.69;33.02;;
69619;Laerm;57653;51.434;5.984;2023-09-07T00:09:31;32.06;30.88;33.04;;
69619;Laerm;57653;51.434;5.984;2023-09-07T00:09:42;32.04;30.53;33.15;;
69619;Laerm;57653;51.434;5.984;2023-09-07T00:09:52;32.08;31.11;33.14;;
69619;Laerm;57653;51.434;5.984;2023-09-07T00:10:02;31.99;30.82;33.10;;
69619;Laerm;57653;51.434;5.984;2023-09-07T00:10:13;32.04;30.89;33.17;;
69619;Laerm;57653;51.434;5.984;2023-09-07T00:10:24;32.04;30.90;33.14;;
69619;Laerm;57653;51.434;5.984;2023-09-07T00:10:35;32.05;31.16;32.81;;
69619;Laerm;57653;51.434;5.984;2023-09-07T00:10:46;32.01;30.49;33.07;;
69619;Laerm;57653;51.434;5.984;2023-09-07T00:11:02;32.02;31.14;33.06;;
69619;Laerm;57653;51.434;5.984;2023-09-07T00:11:12;32.05;30.93;33.47;;
69619;Laerm;57653;51.434;5.984;2023-09-07T00:11:23;32.06;30.82;33.74;;
69619;Laerm;57653;51.434;5.984;2023-09-07T00:11:33;32.07;30.68;32.97;;
69619;Laerm;57653;51.434;5.984;2023-09-07T00:11:44;32.04;30.88;33.18;;
69619;Laerm;57653;51.434;5.984;2023-09-07T00:11:55;32.05;30.66;33.07;;
69619;Laerm;57653;51.434;5.984;2023-09-07T00:12:05;32.06;30.87;33.20;;
69619;Laerm;57653;51.434;5.984;2023-09-07T00:12:15;32.08;31.13;33.00;;
69619;Laerm;57653;51.434;5.984;2023-09-07T00:12:26;32.01;30.86;33.05;;
69619;Laerm;57653;51.434;5.984;2023-09-07T00:12:37;32.02;31.04;32.82;;
69619;Laerm;57653;51.434;5.984;2023-09-07T00:12:49;32.05;30.91;33.04;;
69619;Laerm;57653;51.434;5.984;2023-09-07T00:12:59;32.04;31.01;33.17;;
69619;Laerm;57653;51.434;5.984;2023-09-07T00:13:09;32.03;30.97;32.95;;
69619;Laerm;57653;51.434;5.984;2023-09-07T00:13:20;31.99;30.80;33.04;;
69619;Laerm;57653;51.434;5.984;2023-09-07T00:13:30;32.03;30.90;32.98;;
69619;Laerm;57653;51.434;5.984;2023-09-07T00:13:41;32.12;31.11;35.51;;
69619;Laerm;57653;51.434;5.984;2023-09-07T00:13:51;32.10;30.80;33.16;;
69619;Laerm;57653;51.434;5.984;2023-09-07T00:14:02;32.19;31.21;33.72;;
69619;Laerm;57653;51.434;5.984;2023-09-07T00:14:12;32.18;31.03;33.41;;
69619;Laerm;57653;51.434;5.984;2023-09-07T00:14:23;32.10;31.03;33.29;;
69619;Laerm;57653;51.434;5.984;2023-09-07T00:14:33;32.12;31.29;33.07;;
69619;Laerm;57653;51.434;5.984;2023-09-07T00:14:43;32.18;31.23;33.20;;
69619;Laerm;57653;51.434;5.984;2023-09-07T00:14:53;32.21;30.95;33.32;;
69619;Laerm;57653;51.434;5.984;2023-09-07T00:15:06;32.31;30.72;33.42;;
69619;Laerm;57653;51.434;5.984;2023-09-07T00:15:17;32.71;31.46;33.88;;
69619;Laerm;57653;51.434;5.984;2023-09-07T00:15:35;32.84;31.53;34.01;;
69619;Laerm;57653;51.434;5.984;2023-09-07T00:15:46;33.57;31.99;35.83;;
69619;Laerm;57653;51.434;5.984;2023-09-07T00:15:59;34.64;33.21;36.30;;
69619;Laerm;57653;51.434;5.984;2023-09-07T00:16:13;52.16;34.74;61.86;;
69619;Laerm;57653;51.434;5.984;2023-09-07T00:16:23;67.06;60.03;70.16;;
69619;Laerm;57653;51.434;5.984;2023-09-07T00:16:33;69.59;67.59;71.74;;
69619;Laerm;57653;51.434;5.984;2023-09-07T00:16:45;64.89;47.64;70.48;;
69619;Laerm;57653;51.434;5.984;2023-09-07T00:16:55;43.04;34.63;50.76;;
69619;Laerm;57653;51.434;5.984;2023-09-07T00:17:07;34.51;31.80;37.94;;
69619;Laerm;57653;51.434;5.984;2023-09-07T00:17:17;32.40;31.32;33.93;;
69619;Laerm;57653;51.434;5.984;2023-09-07T00:17:27;32.11;30.78;33.32;;
69619;Laerm;57653;51.434;5.984;2023-09-07T00:17:38;32.07;30.95;33.04;;
69619;Laerm;57653;51.434;5.984;2023-09-07T00:17:48;32.11;31.30;33.07;;
69619;Laerm;57653;51.434;5.984;2023-09-07T00:17:59;32.07;31.01;33.06;;
69619;Laerm;57653;51.434;5.984;2023-09-07T00:18:10;32.10;31.03;33.11;;
69619;Laerm;57653;51.434;5.984;2023-09-07T00:18:20;32.07;31.10;32.92;;
69619;Laerm;57653;51.434;5.984;2023-09-07T00:18:31;32.05;30.99;33.37;;
69619;Laerm;57653;51.434;5.984;2023-09-07T00:18:41;32.03;30.97;33.30;;
69619;Laerm;57653;51.434;5.984;2023-09-07T00:18:51;32.04;30.80;33.37;;
69619;Laerm;57653;51.434;5.984;2023-09-07T00:19:02;32.08;30.56;33.31;;
69619;Laerm;57653;51.434;5.984;2023-09-07T00:19:13;32.04;31.03;33.10;;
69619;Laerm;57653;51.434;5.984;2023-09-07T00:19:23;32.03;30.54;32.89;;
69619;Laerm;57653;51.434;5.984;2023-09-07T00:19:33;32.03;30.84;32.97;;
69619;Laerm;57653;51.434;5.984;2023-09-07T00:19:46;32.08;31.03;33.31;;
69619;Laerm;57653;51.434;5.984;2023-09-07T00:20:01;32.04;30.93;33.06;;
69619;Laerm;57653;51.434;5.984;2023-09-07T00:20:14;32.28;31.02;33.43;;
69619;Laerm;57653;51.434;5.984;2023-09-07T00:20:24;32.14;31.15;33.19;;
69619;Laerm;57653;51.434;5.984;2023-09-07T00:20:35;32.17;31.08;33.15;;
69619;Laerm;57653;51.434;5.984;2023-09-07T00:20:45;32.83;31.40;34.56;;
69619;Laerm;57653;51.434;5.984;2023-09-07T00:20:55;45.68;32.38;54.50;;
69619;Laerm;57653;51.434;5.984;2023-09-07T00:21:06;61.83;52.03;66.36;;
69619;Laerm;57653;51.434;5.984;2023-09-07T00:21:16;62.73;60.23;64.70;;
69619;Laerm;57653;51.434;5.984;2023-09-07T00:21:26;61.52;52.85;65.04;;
69619;Laerm;57653;51.434;5.984;2023-09-07T00:21:37;47.25;38.74;55.82;;
69619;Laerm;57653;51.434;5.984;2023-09-07T00:21:47;38.27;35.49;43.05;;
69619;Laerm;57653;51.434;5.984;2023-09-07T00:21:57;35.93;33.79;38.25;;
69619;Laerm;57653;51.434;5.984;2023-09-07T00:22:08;35.35;33.09;39.14;;
69619;Laerm;57653;51.434;5.984;2023-09-07T00:22:19;34.63;32.51;37.23;;
69619;Laerm;57653;51.434;5.984;2023-09-07T00:22:29;33.58;32.10;35.80;;
69619;Laerm;57653;51.434;5.984;2023-09-07T00:22:41;33.09;31.72;34.79;;
69619;Laerm;57653;51.434;5.984;2023-09-07T00:22:51;34.15;32.34;37.55;;
69619;Laerm;57653;51.434;5.984;2023-09-07T00:23:02;33.34;31.12;36.35;;
69619;Laerm;57653;51.434;5.984;2023-09-07T00:23:13;32.77;31.46;34.42;;
69619;Laerm;57653;51.434;5.984;2023-09-07T00:23:23;32.80;31.78;34.35;;
69619;Laerm;57653;51.434;5.984;2023-09-07T00:23:33;33.10;31.83;34.30;;
69619;Laerm;57653;51.434;5.984;2023-09-07T00:23:43;33.63;32.04;36.22;;
69619;Laerm;57653;51.434;5.984;2023-09-07T00:23:54;36.89;33.23;42.61;;
69619;Laerm;57653;51.434;5.984;2023-09-07T00:24:05;50.89;40.45;57.41;;
69619;Laerm;57653;51.434;5.984;2023-09-07T00:24:16;61.83;56.52;64.25;;
69619;Laerm;57653;51.434;5.984;2023-09-07T00:24:26;62.80;60.40;66.47;;
69619;Laerm;57653;51.434;5.984;2023-09-07T00:24:36;58.51;46.44;64.59;;
69619;Laerm;57653;51.434;5.984;2023-09-07T00:24:47;41.79;34.39;47.14;;
69619;Laerm;57653;51.434;5.984;2023-09-07T00:24:57;34.56;32.27;38.58;;
69619;Laerm;57653;51.434;5.984;2023-09-07T00:25:07;32.70;31.27;34.86;;
69619;Laerm;57653;51.434;5.984;2023-09-07T00:25:17;32.23;30.77;33.95;;
69619;Laerm;57653;51.434;5.984;2023-09-07T00:25:28;32.24;31.15;33.47;;
69619;Laerm;57653;51.434;5.984;2023-09-07T00:25:38;32.08;31.06;33.29;;
69619;Laerm;57653;51.434;5.984;2023-09-07T00:25:48;32.12;31.15;33.21;;
69619;Laerm;57653;51.434;5.984;2023-09-07T00:25:58;32.32;31.28;33.36;;
69619;Laerm;57653;51.434;5.984;2023-09-07T00:26:09;32.37;31.47;33.56;;
69619;Laerm;57653;51.434;5.984;2023-09-07T00:26:20;32.26;31.12;33.39;;
69619;Laerm;57653;51.434;5.984;2023-09-07T00:26:31;32.18;30.93;33.19;;
69619;Laerm;57653;51.434;5.984;2023-09-07T00:26:41;32.25;31.34;33.43;;
69619;Laerm;57653;51.434;5.984;2023-09-07T00:26:51;32.21;31.10;33.28;;
69619;Laerm;57653;51.434;5.984;2023-09-07T00:27:02;32.21;31.22;34.18;;
69619;Laerm;57653;51.434;5.984;2023-09-07T00:27:15;32.20;30.98;33.39;;
69619;Laerm;57653;51.434;5.984;2023-09-07T00:27:25;33.05;31.72;34.57;;
69619;Laerm;57653;51.434;5.984;2023-09-07T00:27:36;34.24;31.83;38.59;;
69619;Laerm;57653;51.434;5.984;2023-09-07T00:27:46;37.97;32.92;43.46;;
69619;Laerm;57653;51.434;5.984;2023-09-07T00:27:56;35.00;32.04;38.52;;
69619;Laerm;57653;51.434;5.984;2023-09-07T00:28:06;36.09;32.01;40.21;;
69619;Laerm;57653;51.434;5.984;2023-09-07T00:28:17;33.55;31.35;37.05;;
69619;Laerm;57653;51.434;5.984;2023-09-07T00:28:27;32.67;31.22;38.87;;
69619;Laerm;57653;51.434;5.984;2023-09-07T00:28:37;32.47;31.29;33.85;;
69619;Laerm;57653;51.434;5.984;2023-09-07T00:28:48;32.16;30.98;33.06;;
69619;Laerm;57653;51.434;5.984;2023-09-07T00:28:58;32.25;30.95;34.16;;
69619;Laerm;57653;51.434;5.984;2023-09-07T00:29:09;32.13;31.09;33.01;;
69619;Laerm;57653;51.434;5.984;2023-09-07T00:29:19;32.13;31.00;33.34;;
69619;Laerm;57653;51.434;5.984;2023-09-07T00:29:29;32.15;31.25;34.39;;
69619;Laerm;57653;51.434;5.984;2023-09-07T00:29:40;32.12;31.11;33.06;;
69619;Laerm;57653;51.434;5.984;2023-09-07T00:29:50;32.10;30.92;33.17;;
69619;Laerm;57653;51.434;5.984;2023-09-07T00:30:00;32.21;30.92;35.02;;
69619;Laerm;57653;51.434;5.984;2023-09-07T00:30:11;33.94;31.12;37.87;;
69619;Laerm;57653;51.434;5.984;2023-09-07T00:30:21;32.90;31.23;35.78;;
69619;Laerm;57653;51.434;5.984;2023-09-07T00:30:32;32.64;31.12;35.92;;
69619;Laerm;57653;51.434;5.984;2023-09-07T00:30:42;32.21;31.19;33.62;;
69619;Laerm;57653;51.434;5.984;2023-09-07T00:30:52;32.15;31.18;33.21;;
69619;Laerm;57653;51.434;5.984;2023-09-07T00:31:02;32.14;30.83;33.14;;
69619;Laerm;57653;51.434;5.984;2023-09-07T00:31:13;33.48;31.11;44.64;;
69619;Laerm;57653;51.434;5.984;2023-09-07T00:31:24;32.18;31.07;33.23;;
69619;Laerm;57653;51.434;5.984;2023-09-07T00:31:34;32.14;30.91;33.10;;
69619;Laerm;57653;51.434;5.984;2023-09-07T00:31:44;32.14;31.15;33.14;;
69619;Laerm;57653;51.434;5.984;2023-09-07T00:31:55;32.13;30.53;33.08;;
69619;Laerm;57653;51.434;5.984;2023-09-07T00:32:05;32.11;30.86;33.16;;
69619;Laerm;57653;51.434;5.984;2023-09-07T00:32:15;32.12;30.92;33.02;;
69619;Laerm;57653;51.434;5.984;2023-09-07T00:32:25;32.09;31.13;33.04;;
69619;Laerm;57653;51.434;5.984;2023-09-07T00:32:36;32.12;31.00;32.96;;
69619;Laerm;57653;51.434;5.984;2023-09-07T00:32:47;32.12;31.19;33.18;;
69619;Laerm;57653;51.434;5.984;2023-09-07T00:32:57;32.10;31.02;33.23;;
69619;Laerm;57653;51.434;5.984;2023-09-07T00:33:08;32.09;30.95;33.05;;
69619;Laerm;57653;51.434;5.984;2023-09-07T00:33:18;32.09;31.05;32.98;;
69619;Laerm;57653;51.434;5.984;2023-09-07T00:33:28;32.08;30.71;33.06;;
69619;Laerm;57653;51.434;5.984;2023-09-07T00:33:39;32.13;31.03;33.09;;
69619;Laerm;57653;51.434;5.984;2023-09-07T00:33:49;32.09;30.84;33.21;;
69619;Laerm;57653;51.434;5.984;2023-09-07T00:33:59;32.11;30.91;33.78;;
69619;Laerm;57653;51.434;5.984;2023-09-07T00:34:09;32.12;31.20;32.97;;
69619;Laerm;57653;51.434;5.984;2023-09-07T00:34:20;32.13;31.07;33.07;;
69619;Laerm;57653;51.434;5.984;2023-09-07T00:34:30;32.09;31.14;33.13;;
69619;Laerm;57653;51.434;5.984;2023-09-07T00:34:40;32.06;30.86;33.01;;
69619;Laerm;57653;51.434;5.984;2023-09-07T00:34:50;32.09;30.84;33.28;;
69619;Laerm;57653;51.434;5.984;2023-09-07T00:35:01;32.10;30.96;33.03;;
69619;Laerm;57653;51.434;5.984;2023-09-07T00:35:11;32.12;31.06;33.20;;
69619;Laerm;57653;51.434;5.984;2023-09-07T00:35:21;32.30;31.26;33.26;;
69619;Laerm;57653;51.434;5.984;2023-09-07T00:35:32;32.21;31.03;33.41;;
69619;Laerm;57653;51.434;5.984;2023-09-07T00:35:42;32.18;31.16;33.20;;
69619;Laerm;57653;51.434;5.984;2023-09-07T00:35:52;32.67;31.43;34.35;;
69619;Laerm;57653;51.434;5.984;2023-09-07T00:36:02;42.62;32.22;51.48;;
69619;Laerm;57653;51.434;5.984;2023-09-07T00:36:13;60.94;47.43;66.40;;
69619;Laerm;57653;51.434;5.984;2023-09-07T00:36:23;61.77;59.51;64.28;;
69619;Laerm;57653;51.434;5.984;2023-09-07T00:36:33;61.68;54.66;65.53;;
69619;Laerm;57653;51.434;5.984;2023-09-07T00:36:44;49.21;41.16;56.32;;
69619;Laerm;57653;51.434;5.984;2023-09-07T00:36:54;39.28;36.43;42.93;;
69619;Laerm;57653;51.434;5.984;2023-09-07T00:37:04;35.78;33.29;38.48;;
69619;Laerm;57653;51.434;5.984;2023-09-07T00:37:14;34.30;32.51;35.69;;
69619;Laerm;57653;51.434;5.984;2023-09-07T00:37:25;33.35;32.15;34.59;;
69619;Laerm;57653;51.434;5.984;2023-09-07T00:37:36;32.76;31.74;33.97;;
69619;Laerm;57653;51.434;5.984;2023-09-07T00:37:46;32.52;31.49;33.63;;
69619;Laerm;57653;51.434;5.984;2023-09-07T00:37:57;32.34;31.38;33.32;;
69619;Laerm;57653;51.434;5.984;2023-09-07T00:38:07;32.23;30.52;33.57;;
69619;Laerm;57653;51.434;5.984;2023-09-07T00:38:17;32.15;31.24;33.05;;
69619;Laerm;57653;51.434;5.984;2023-09-07T00:38:27;32.14;31.21;33.32;;
69619;Laerm;57653;51.434;5.984;2023-09-07T00:38:38;32.16;31.02;33.10;;
69619;Laerm;57653;51.434;5.984;2023-09-07T00:38:48;32.09;30.97;33.28;;
69619;Laerm;57653;51.434;5.984;2023-09-07T00:38:58;32.09;31.23;33.40;;
69619;Laerm;57653;51.434;5.984;2023-09-07T00:39:09;32.08;31.01;33.27;;
69619;Laerm;57653;51.434;5.984;2023-09-07T00:39:19;32.13;30.95;33.08;;
69619;Laerm;57653;51.434;5.984;2023-09-07T00:39:29;32.13;31.13;33.14;;
69619;Laerm;57653;51.434;5.984;2023-09-07T00:39:39;32.17;30.94;35.44;;
69619;Laerm;57653;51.434;5.984;2023-09-07T00:39:50;32.18;31.13;33.09;;
69619;Laerm;57653;51.434;5.984;2023-09-07T00:40:00;32.19;31.13;33.08;;
69619;Laerm;57653;51.434;5.984;2023-09-07T00:40:10;32.17;31.26;33.60;;
69619;Laerm;57653;51.434;5.984;2023-09-07T00:40:22;32.21;30.97;33.61;;
69619;Laerm;57653;51.434;5.984;2023-09-07T00:40:32;32.14;30.88;33.10;;
69619;Laerm;57653;51.434;5.984;2023-09-07T00:40:43;32.21;31.12;33.26;;
69619;Laerm;57653;51.434;5.984;2023-09-07T00:40:54;32.31;31.00;33.49;;
69619;Laerm;57653;51.434;5.984;2023-09-07T00:41:04;32.34;31.17;33.37;;
69619;Laerm;57653;51.434;5.984;2023-09-07T00:41:15;32.24;31.40;33.15;;
69619;Laerm;57653;51.434;5.984;2023-09-07T00:41:25;32.35;31.02;33.76;;
69619;Laerm;57653;51.434;5.984;2023-09-07T00:41:35;33.24;31.61;35.37;;
69619;Laerm;57653;51.434;5.984;2023-09-07T00:41:45;33.46;31.20;36.56;;
69619;Laerm;57653;51.434;5.984;2023-09-07T00:41:56;34.56;32.39;37.73;;
69619;Laerm;57653;51.434;5.984;2023-09-07T00:42:06;32.63;31.26;34.60;;
69619;Laerm;57653;51.434;5.984;2023-09-07T00:42:16;32.69;30.94;35.41;;
69619;Laerm;57653;51.434;5.984;2023-09-07T00:42:27;32.42;31.19;33.48;;
69619;Laerm;57653;51.434;5.984;2023-09-07T00:42:37;32.24;31.37;33.32;;
69619;Laerm;57653;51.434;5.984;2023-09-07T00:42:47;32.21;30.72;33.24;;
69619;Laerm;57653;51.434;5.984;2023-09-07T00:42:58;32.12;30.74;33.20;;
69619;Laerm;57653;51.434;5.984;2023-09-07T00:43:08;32.14;31.08;33.09;;
69619;Laerm;57653;51.434;5.984;2023-09-07T00:43:19;32.13;31.12;33.38;;
69619;Laerm;57653;51.434;5.984;2023-09-07T00:43:29;32.16;30.64;33.30;;
69619;Laerm;57653;51.434;5.984;2023-09-07T00:43:40;32.11;31.09;33.21;;
69619;Laerm;57653;51.434;5.984;2023-09-07T00:43:51;32.15;30.97;33.28;;
69619;Laerm;57653;51.434;5.984;2023-09-07T00:44:01;32.12;30.88;33.48;;
69619;Laerm;57653;51.434;5.984;2023-09-07T00:44:11;32.14;30.99;33.18;;
69619;Laerm;57653;51.434;5.984;2023-09-07T00:44:21;32.12;31.10;33.23;;
69619;Laerm;57653;51.434;5.984;2023-09-07T00:44:32;32.12;31.16;32.95;;
69619;Laerm;57653;51.434;5.984;2023-09-07T00:44:42;32.11;30.97;33.01;;
69619;Laerm;57653;51.434;5.984;2023-09-07T00:44:53;32.17;31.14;33.24;;
69619;Laerm;57653;51.434;5.984;2023-09-07T00:45:03;32.15;31.02;33.56;;
69619;Laerm;57653;51.434;5.984;2023-09-07T00:45:13;32.15;30.96;33.19;;
69619;Laerm;57653;51.434;5.984;2023-09-07T00:45:24;32.19;31.04;34.12;;
69619;Laerm;57653;51.434;5.984;2023-09-07T00:45:34;32.29;30.99;33.13;;
69619;Laerm;57653;51.434;5.984;2023-09-07T00:45:45;32.24;31.17;33.20;;
69619;Laerm;57653;51.434;5.984;2023-09-07T00:45:55;32.23;31.24;33.15;;
69619;Laerm;57653;51.434;5.984;2023-09-07T00:46:05;32.44;31.40;33.45;;
69619;Laerm;57653;51.434;5.984;2023-09-07T00:46:16;34.13;31.54;41.42;;
69619;Laerm;57653;51.434;5.984;2023-09-07T00:46:26;54.98;38.25;62.79;;
69619;Laerm;57653;51.434;5.984;2023-09-07T00:46:36;62.57;60.13;64.58;;
69619;Laerm;57653;51.434;5.984;2023-09-07T00:46:47;62.84;60.16;65.05;;
69619;Laerm;57653;51.434;5.984;2023-09-07T00:46:57;57.47;48.74;63.65;;
69619;Laerm;57653;51.434;5.984;2023-09-07T00:47:07;44.70;36.65;50.65;;
69619;Laerm;57653;51.434;5.984;2023-09-07T00:47:18;36.62;34.01;38.87;;
69619;Laerm;57653;51.434;5.984;2023-09-07T00:47:28;34.75;32.56;36.71;;
69619;Laerm;57653;51.434;5.984;2023-09-07T00:47:39;33.64;32.30;35.53;;
69619;Laerm;57653;51.434;5.984;2023-09-07T00:47:50;33.05;31.62;34.29;;
69619;Laerm;57653;51.434;5.984;2023-09-07T00:48:00;32.49;31.47;33.81;;
69619;Laerm;57653;51.434;5.984;2023-09-07T00:48:11;32.40;31.14;33.52;;
69619;Laerm;57653;51.434;5.984;2023-09-07T00:48:22;32.40;30.63;33.47;;
69619;Laerm;57653;51.434;5.984;2023-09-07T00:48:34;32.26;31.28;33.41;;
69619;Laerm;57653;51.434;5.984;2023-09-07T00:48:45;32.22;31.05;33.27;;
69619;Laerm;57653;51.434;5.984;2023-09-07T00:48:55;32.19;31.15;33.13;;
69619;Laerm;57653;51.434;5.984;2023-09-07T00:49:06;32.30;31.19;36.25;;
69619;Laerm;57653;51.434;5.984;2023-09-07T00:49:16;32.57;31.34;38.13;;
69619;Laerm;57653;51.434;5.984;2023-09-07T00:49:27;32.32;31.02;33.10;;
69619;Laerm;57653;51.434;5.984;2023-09-07T00:49:37;32.26;30.94;33.38;;
69619;Laerm;57653;51.434;5.984;2023-09-07T00:49:48;33.36;31.10;37.15;;
69619;Laerm;57653;51.434;5.984;2023-09-07T00:49:58;33.90;31.41;37.16;;
69619;Laerm;57653;51.434;5.984;2023-09-07T00:50:09;34.41;32.59;37.39;;
69619;Laerm;57653;51.434;5.984;2023-09-07T00:50:20;34.06;31.88;36.89;;
69619;Laerm;57653;51.434;5.984;2023-09-07T00:50:30;32.48;30.85;33.75;;
69619;Laerm;57653;51.434;5.984;2023-09-07T00:50:41;32.34;31.38;33.24;;
69619;Laerm;57653;51.434;5.984;2023-09-07T00:50:52;32.23;31.20;33.90;;
69619;Laerm;57653;51.434;5.984;2023-09-07T00:51:02;32.21;31.17;33.51;;
69619;Laerm;57653;51.434;5.984;2023-09-07T00:51:13;32.32;31.27;33.47;;
69619;Laerm;57653;51.434;5.984;2023-09-07T00:51:23;32.29;31.17;33.37;;
69619;Laerm;57653;51.434;5.984;2023-09-07T00:51:33;32.35;31.13;33.63;;
69619;Laerm;57653;51.434;5.984;2023-09-07T00:51:44;32.99;31.45;34.52;;
69619;Laerm;57653;51.434;5.984;2023-09-07T00:51:55;45.28;32.99;52.90;;
69619;Laerm;57653;51.434;5.984;2023-09-07T00:52:05;65.53;52.49;70.09;;
69619;Laerm;57653;51.434;5.984;2023-09-07T00:52:18;63.07;53.09;68.01;;
69619;Laerm;57653;51.434;5.984;2023-09-07T00:52:28;48.61;41.65;54.16;;
69619;Laerm;57653;51.434;5.984;2023-09-07T00:52:40;39.81;35.39;45.44;;
69619;Laerm;57653;51.434;5.984;2023-09-07T00:52:52;35.98;33.79;38.68;;
69619;Laerm;57653;51.434;5.984;2023-09-07T00:53:02;35.21;33.58;37.17;;
69619;Laerm;57653;51.434;5.984;2023-09-07T00:53:13;34.00;31.59;38.24;;
69619;Laerm;57653;51.434;5.984;2023-09-07T00:53:23;33.14;31.67;34.59;;
69619;Laerm;57653;51.434;5.984;2023-09-07T00:53:35;32.57;31.42;33.53;;
69619;Laerm;57653;51.434;5.984;2023-09-07T00:53:45;32.36;31.36;33.25;;
69619;Laerm;57653;51.434;5.984;2023-09-07T00:53:56;32.30;31.08;33.44;;
69619;Laerm;57653;51.434;5.984;2023-09-07T00:54:06;32.29;31.11;33.30;;
69619;Laerm;57653;51.434;5.984;2023-09-07T00:54:17;32.31;31.20;34.19;;
69619;Laerm;57653;51.434;5.984;2023-09-07T00:54:27;32.25;31.05;33.43;;
69619;Laerm;57653;51.434;5.984;2023-09-07T00:54:38;32.22;31.19;33.44;;
69619;Laerm;57653;51.434;5.984;2023-09-07T00:54:50;32.19;30.95;33.44;;
69619;Laerm;57653;51.434;5.984;2023-09-07T00:55:04;32.19;31.25;33.15;;
69619;Laerm;57653;51.434;5.984;2023-09-07T00:55:14;32.38;31.18;33.88;;
69619;Laerm;57653;51.434;5.984;2023-09-07T00:55:25;32.33;31.23;33.28;;
69619;Laerm;57653;51.434;5.984;2023-09-07T00:55:36;32.25;31.00;33.30;;
69619;Laerm;57653;51.434;5.984;2023-09-07T00:55:47;32.19;31.07;33.16;;
69619;Laerm;57653;51.434;5.984;2023-09-07T00:55:58;33.18;31.46;38.24;;
69619;Laerm;57653;51.434;5.984;2023-09-07T00:56:08;33.11;31.51;37.13;;
69619;Laerm;57653;51.434;5.984;2023-09-07T00:56:19;35.08;31.77;38.35;;
69619;Laerm;57653;51.434;5.984;2023-09-07T00:56:29;33.16;31.73;35.39;;
69619;Laerm;57653;51.434;5.984;2023-09-07T00:56:39;32.72;31.18;35.33;;
69619;Laerm;57653;51.434;5.984;2023-09-07T00:56:50;32.31;31.19;33.33;;
69619;Laerm;57653;51.434;5.984;2023-09-07T00:57:00;32.28;31.12;33.42;;
69619;Laerm;57653;51.434;5.984;2023-09-07T00:57:11;32.25;31.15;33.25;;
69619;Laerm;57653;51.434;5.984;2023-09-07T00:57:21;32.25;31.24;33.25;;
69619;Laerm;57653;51.434;5.984;2023-09-07T00:57:31;32.29;31.39;33.37;;
69619;Laerm;57653;51.434;5.984;2023-09-07T00:57:42;32.64;31.67;34.72;;
69619;Laerm;57653;51.434;5.984;2023-09-07T00:57:52;32.55;30.83;33.85;;
69619;Laerm;57653;51.434;5.984;2023-09-07T00:58:03;32.41;31.31;33.54;;
69619;Laerm;57653;51.434;5.984;2023-09-07T00:58:14;32.49;31.04;33.69;;
69619;Laerm;57653;51.434;5.984;2023-09-07T00:58:24;32.40;31.36;33.61;;
69619;Laerm;57653;51.434;5.984;2023-09-07T00:58:35;32.45;31.60;33.76;;
69619;Laerm;57653;51.434;5.984;2023-09-07T00:58:46;32.37;31.21;33.36;;
69619;Laerm;57653;51.434;5.984;2023-09-07T00:58:56;32.33;31.31;33.38;;
69619;Laerm;57653;51.434;5.984;2023-09-07T00:59:09;32.30;31.41;33.49;;
69619;Laerm;57653;51.434;5.984;2023-09-07T00:59:21;32.26;31.09;33.32;;
69619;Laerm;57653;51.434;5.984;2023-09-07T00:59:35;32.16;30.80;32.99;;